createdAt,value
2023-03-12T00:02:37.247Z,11.47
2023-03-12T00:12:40.432Z,12.50
2023-03-12T00:22:45.435Z,12.00
2023-03-12T00:32:48.727Z,11.80
2023-03-12T00:42:53.284Z,12.13
2023-03-12T00:52:56.481Z,11.40
2023-03-12T01:03:01.026Z,11.33
2023-03-12T01:13:04.708Z,11.10
2023-03-12T01:23:09.720Z,9.60
2023-03-12T01:33:13.558Z,10.77
2023-03-12T01:43:26.881Z,10.63
2023-03-12T01:53:32.864Z,10.43
2023-03-12T02:03:38.791Z,10.37
2023-03-12T02:13:44.636Z,10.03
2023-03-12T02:23:57.218Z,12.03
2023-03-12T02:34:03.545Z,12.37
2023-03-12T02:44:09.941Z,11.63
2023-03-12T02:54:17.037Z,10.77
2023-03-12T03:04:20.341Z,11.00
2023-03-12T03:14:25.643Z,12.33
2023-03-12T03:24:29.761Z,12.70
2023-03-12T03:34:34.466Z,12.73
2023-03-12T03:44:37.756Z,12.47
2023-03-12T03:54:42.513Z,13.53
2023-03-12T04:04:45.872Z,13.70
2023-03-12T04:14:50.515Z,13.63
2023-03-12T04:24:53.808Z,15.00
2023-03-12T04:34:58.607Z,13.17
2023-03-12T04:45:02.162Z,13.27
2023-03-12T04:55:08.139Z,12.33
2023-03-12T05:05:12.603Z,12.50
2023-03-12T05:15:18.522Z,13.83
2023-03-12T05:25:22.043Z,14.43
2023-03-12T05:35:26.995Z,13.47
2023-03-12T05:45:30.435Z,11.13
2023-03-12T05:55:38.245Z,8.57
2023-03-12T06:05:41.899Z,7.47
2023-03-12T06:15:46.625Z,14.77
2023-03-12T06:25:49.970Z,13.40
2023-03-12T06:35:56.964Z,13.90
2023-03-12T06:46:01.440Z,13.40
2023-03-12T06:56:07.184Z,13.43
2023-03-12T07:06:15.797Z,12.67
2023-03-12T07:16:20.380Z,12.90
2023-03-12T07:26:23.789Z,13.57
2023-03-12T07:36:29.747Z,8.03
2023-03-12T07:46:33.253Z,7.23
2023-03-12T07:56:38.101Z,6.97
2023-03-12T08:06:42.819Z,5.87
2023-03-12T08:16:47.748Z,5.73
2023-03-12T08:26:51.077Z,4.90
2023-03-12T08:36:56.476Z,5.53
2023-03-12T08:46:59.708Z,4.73
2023-03-12T08:57:04.387Z,4.17
2023-03-12T09:07:07.769Z,4.03
2023-03-12T09:17:12.409Z,4.73
2023-03-12T09:27:15.629Z,4.90
2023-03-12T09:37:23.242Z,2.20
2023-03-12T09:47:30.538Z,0.70
2023-03-12T09:57:35.753Z,0.60
2023-03-12T10:07:44.174Z,0.77
2023-03-12T10:18:00.977Z,0.90
2023-03-12T10:28:15.423Z,1.10
2023-03-12T10:38:27.915Z,1.10
2023-03-12T10:48:31.109Z,1.00
2023-03-12T10:58:40.457Z,1.17
2023-03-12T11:08:43.754Z,1.10
2023-03-12T11:18:57.543Z,1.20
2023-03-12T11:29:04.179Z,1.17
2023-03-12T11:39:18.196Z,1.10
2023-03-12T11:49:36.680Z,0.87
2023-03-12T11:59:51.998Z,0.97
2023-03-12T12:10:03.279Z,1.07
2023-03-12T12:20:23.357Z,1.00
2023-03-12T12:30:31.986Z,1.10
2023-03-12T12:40:40.801Z,1.10
2023-03-12T12:50:45.852Z,1.30
2023-03-12T13:00:52.335Z,1.20
2023-03-12T13:11:15.485Z,1.00
2023-03-12T13:21:30.135Z,1.25
2023-03-12T13:31:40.581Z,0.93
2023-03-12T13:41:49.844Z,1.27
2023-03-12T13:52:00.528Z,1.23
2023-03-12T14:02:16.282Z,1.50
2023-03-12T14:12:25.943Z,1.23
2023-03-12T14:22:33.852Z,0.90
2023-03-12T14:32:38.147Z,1.20
2023-03-12T14:42:42.665Z,1.33
2023-03-12T14:52:46.023Z,1.33
2023-03-12T15:02:52.491Z,1.00
2023-03-12T15:12:58.877Z,1.30
2023-03-12T15:23:04.624Z,1.40
2023-03-12T15:33:10.020Z,1.27
2023-03-12T15:43:20.376Z,1.50
2023-03-12T15:53:31.012Z,0.85
2023-03-12T16:03:36.063Z,1.00
2023-03-12T16:13:39.336Z,1.00
2023-03-12T16:23:44.089Z,0.90
2023-03-12T16:33:47.806Z,1.57
2023-03-12T16:43:54.778Z,1.10
2023-03-12T16:54:09.808Z,1.30
2023-03-12T17:04:16.230Z,1.27
2023-03-12T17:14:21.941Z,1.50
2023-03-12T17:24:28.174Z,1.20
2023-03-12T17:34:31.475Z,1.53
2023-03-12T17:44:36.801Z,3.00
2023-03-12T17:54:40.127Z,4.70
2023-03-12T18:04:44.746Z,2.87
2023-03-12T18:14:48.425Z,2.17
2023-03-12T18:24:52.979Z,2.10
2023-03-12T18:34:56.771Z,3.17
2023-03-12T18:45:01.319Z,2.77
2023-03-12T18:55:05.324Z,2.57
2023-03-12T19:05:10.932Z,1.70
2023-03-12T19:15:14.087Z,4.23
2023-03-12T19:25:20.095Z,2.40
2023-03-12T19:35:23.493Z,2.30
2023-03-12T19:45:28.628Z,1.60
2023-03-12T19:55:31.896Z,3.90
2023-03-12T20:05:36.396Z,2.10
2023-03-12T20:15:39.773Z,3.30
2023-03-12T20:25:44.583Z,2.10
2023-03-12T20:35:50.219Z,1.90
2023-03-12T20:45:55.151Z,2.47
2023-03-12T20:55:58.436Z,2.40
2023-03-12T21:06:03.982Z,2.40
2023-03-12T21:16:08.366Z,2.13
2023-03-12T21:26:13.395Z,1.90
2023-03-12T21:36:17.046Z,2.10
2023-03-12T21:46:24.700Z,2.27
2023-03-12T21:56:28.929Z,2.10
2023-03-12T22:06:33.579Z,2.10
2023-03-12T22:16:36.922Z,1.90
2023-03-12T22:26:41.653Z,2.27
2023-03-12T22:36:44.848Z,1.90
2023-03-12T22:46:51.258Z,1.70
2023-03-12T22:56:54.536Z,2.00
2023-03-12T23:07:12.915Z,1.47
2023-03-12T23:17:17.283Z,1.53
2023-03-12T23:27:21.878Z,2.00
2023-03-12T23:37:25.037Z,1.47
2023-03-12T23:47:29.617Z,2.00
2023-03-12T23:57:32.770Z,1.70
